sensor_id;sensor_type;location;lat;lon;timestamp;P1;durP1;ratioP1;P2;durP2;ratioP2
12042;SDS011;6082;49.306;12.862;2023-02-11T00:00:05;21.50;;;11.03;;
12042;SDS011;6082;49.306;12.862;2023-02-11T00:02:32;24.23;;;13.03;;
12042;SDS011;6082;49.306;12.862;2023-02-11T00:04:58;22.93;;;11.30;;
12042;SDS011;6082;49.306;12.862;2023-02-11T00:07:27;23.80;;;11.47;;
12042;SDS011;6082;49.306;12.862;2023-02-11T00:09:53;20.43;;;11.50;;
12042;SDS011;6082;49.306;12.862;2023-02-11T00:12:20;27.03;;;12.33;;
12042;SDS011;6082;49.306;12.862;2023-02-11T00:14:46;28.67;;;12.83;;
12042;SDS011;6082;49.306;12.862;2023-02-11T00:17:12;22.00;;;12.67;;
12042;SDS011;6082;49.306;12.862;2023-02-11T00:19:38;22.83;;;11.73;;
12042;SDS011;6082;49.306;12.862;2023-02-11T00:22:05;18.43;;;9.53;;
12042;SDS011;6082;49.306;12.862;2023-02-11T00:24:31;25.90;;;11.77;;
12042;SDS011;6082;49.306;12.862;2023-02-11T00:26:57;23.63;;;12.30;;
12042;SDS011;6082;49.306;12.862;2023-02-11T00:29:23;23.83;;;12.03;;
12042;SDS011;6082;49.306;12.862;2023-02-11T00:31:49;20.83;;;10.80;;
12042;SDS011;6082;49.306;12.862;2023-02-11T00:34:15;24.33;;;12.20;;
12042;SDS011;6082;49.306;12.862;2023-02-11T00:36:41;24.10;;;11.63;;
12042;SDS011;6082;49.306;12.862;2023-02-11T00:39:08;24.50;;;11.93;;
12042;SDS011;6082;49.306;12.862;2023-02-11T00:41:34;23.60;;;11.90;;
12042;SDS011;6082;49.306;12.862;2023-02-11T00:44:00;23.60;;;11.77;;
12042;SDS011;6082;49.306;12.862;2023-02-11T00:46:27;25.77;;;12.73;;
12042;SDS011;6082;49.306;12.862;2023-02-11T00:48:53;28.03;;;12.17;;
12042;SDS011;6082;49.306;12.862;2023-02-11T00:51:22;28.00;;;12.23;;
12042;SDS011;6082;49.306;12.862;2023-02-11T00:53:48;22.50;;;13.43;;
12042;SDS011;6082;49.306;12.862;2023-02-11T00:56:14;27.00;;;13.53;;
12042;SDS011;6082;49.306;12.862;2023-02-11T00:58:40;25.60;;;11.67;;
12042;SDS011;6082;49.306;12.862;2023-02-11T01:01:06;22.07;;;11.27;;
12042;SDS011;6082;49.306;12.862;2023-02-11T01:03:32;25.67;;;12.13;;
12042;SDS011;6082;49.306;12.862;2023-02-11T01:05:59;22.67;;;10.63;;
12042;SDS011;6082;49.306;12.862;2023-02-11T01:08:25;24.53;;;11.43;;
12042;SDS011;6082;49.306;12.862;2023-02-11T01:10:55;23.60;;;11.97;;
12042;SDS011;6082;49.306;12.862;2023-02-11T01:13:21;20.40;;;10.63;;
12042;SDS011;6082;49.306;12.862;2023-02-11T01:15:47;31.87;;;12.17;;
12042;SDS011;6082;49.306;12.862;2023-02-11T01:18:14;27.50;;;12.43;;
12042;SDS011;6082;49.306;12.862;2023-02-11T01:20:40;21.27;;;11.67;;
12042;SDS011;6082;49.306;12.862;2023-02-11T01:23:06;22.00;;;10.53;;
12042;SDS011;6082;49.306;12.862;2023-02-11T01:25:32;21.57;;;11.40;;
12042;SDS011;6082;49.306;12.862;2023-02-11T01:27:58;21.43;;;11.60;;
12042;SDS011;6082;49.306;12.862;2023-02-11T01:30:25;26.67;;;12.50;;
12042;SDS011;6082;49.306;12.862;2023-02-11T01:32:51;26.10;;;12.00;;
12042;SDS011;6082;49.306;12.862;2023-02-11T01:35:17;19.37;;;11.77;;
12042;SDS011;6082;49.306;12.862;2023-02-11T01:37:43;28.30;;;12.23;;
12042;SDS011;6082;49.306;12.862;2023-02-11T01:40:15;17.53;;;10.47;;
12042;SDS011;6082;49.306;12.862;2023-02-11T01:42:42;19.53;;;9.60;;
12042;SDS011;6082;49.306;12.862;2023-02-11T01:47:53;20.60;;;9.40;;
12042;SDS011;6082;49.306;12.862;2023-02-11T01:50:19;23.57;;;11.80;;
12042;SDS011;6082;49.306;12.862;2023-02-11T01:52:45;18.73;;;9.50;;
12042;SDS011;6082;49.306;12.862;2023-02-11T01:55:12;22.30;;;11.07;;
12042;SDS011;6082;49.306;12.862;2023-02-11T01:57:58;27.13;;;11.17;;
12042;SDS011;6082;49.306;12.862;2023-02-11T02:00:32;23.30;;;11.33;;
12042;SDS011;6082;49.306;12.862;2023-02-11T02:03:01;22.40;;;10.23;;
12042;SDS011;6082;49.306;12.862;2023-02-11T02:05:44;22.70;;;10.83;;
12042;SDS011;6082;49.306;12.862;2023-02-11T02:10:57;19.93;;;10.80;;
12042;SDS011;6082;49.306;12.862;2023-02-11T02:13:25;20.83;;;12.57;;
12042;SDS011;6082;49.306;12.862;2023-02-11T02:15:55;20.90;;;10.10;;
12042;SDS011;6082;49.306;12.862;2023-02-11T02:23:58;15.70;;;8.47;;
12042;SDS011;6082;49.306;12.862;2023-02-11T02:31:38;26.37;;;10.73;;
12042;SDS011;6082;49.306;12.862;2023-02-11T02:34:09;17.77;;;10.50;;
12042;SDS011;6082;49.306;12.862;2023-02-11T02:37:39;22.33;;;10.40;;
12042;SDS011;6082;49.306;12.862;2023-02-11T02:39:34;18.00;;;10.17;;
12042;SDS011;6082;49.306;12.862;2023-02-11T02:42:01;19.67;;;9.77;;
12042;SDS011;6082;49.306;12.862;2023-02-11T02:44:27;22.23;;;11.23;;
12042;SDS011;6082;49.306;12.862;2023-02-11T02:46:54;25.93;;;11.10;;
12042;SDS011;6082;49.306;12.862;2023-02-11T02:49:20;21.13;;;10.53;;
12042;SDS011;6082;49.306;12.862;2023-02-11T03:09:57;24.23;;;11.43;;
12042;SDS011;6082;49.306;12.862;2023-02-11T03:12:25;17.27;;;9.50;;
12042;SDS011;6082;49.306;12.862;2023-02-11T03:14:53;23.57;;;10.67;;
12042;SDS011;6082;49.306;12.862;2023-02-11T03:17:19;22.73;;;10.37;;
12042;SDS011;6082;49.306;12.862;2023-02-11T03:19:47;25.10;;;11.30;;
12042;SDS011;6082;49.306;12.862;2023-02-11T03:22:21;22.83;;;8.77;;
12042;SDS011;6082;49.306;12.862;2023-02-11T03:24:49;17.60;;;10.27;;
12042;SDS011;6082;49.306;12.862;2023-02-11T03:27:37;26.47;;;11.37;;
12042;SDS011;6082;49.306;12.862;2023-02-11T03:32:33;17.53;;;10.03;;
12042;SDS011;6082;49.306;12.862;2023-02-11T03:37:34;18.37;;;10.53;;
12042;SDS011;6082;49.306;12.862;2023-02-11T03:40:03;18.90;;;10.03;;
12042;SDS011;6082;49.306;12.862;2023-02-11T03:42:38;20.67;;;9.90;;
12042;SDS011;6082;49.306;12.862;2023-02-11T03:45:09;24.43;;;9.47;;
12042;SDS011;6082;49.306;12.862;2023-02-11T03:47:37;27.40;;;10.97;;
12042;SDS011;6082;49.306;12.862;2023-02-11T03:50:05;22.47;;;10.93;;
12042;SDS011;6082;49.306;12.862;2023-02-11T03:52:32;26.93;;;11.97;;
12042;SDS011;6082;49.306;12.862;2023-02-11T03:54:59;23.23;;;10.80;;
12042;SDS011;6082;49.306;12.862;2023-02-11T03:57:28;22.93;;;11.07;;
12042;SDS011;6082;49.306;12.862;2023-02-11T03:59:55;21.87;;;11.17;;
12042;SDS011;6082;49.306;12.862;2023-02-11T04:02:32;28.00;;;11.50;;
12042;SDS011;6082;49.306;12.862;2023-02-11T04:04:58;26.27;;;11.57;;
12042;SDS011;6082;49.306;12.862;2023-02-11T04:07:24;18.97;;;10.53;;
12042;SDS011;6082;49.306;12.862;2023-02-11T04:09:50;21.00;;;10.50;;
12042;SDS011;6082;49.306;12.862;2023-02-11T04:12:17;25.37;;;10.93;;
12042;SDS011;6082;49.306;12.862;2023-02-11T04:14:43;26.93;;;11.97;;
12042;SDS011;6082;49.306;12.862;2023-02-11T04:17:09;21.83;;;10.43;;
12042;SDS011;6082;49.306;12.862;2023-02-11T04:19:35;19.70;;;11.13;;
12042;SDS011;6082;49.306;12.862;2023-02-11T04:22:02;22.40;;;10.10;;
12042;SDS011;6082;49.306;12.862;2023-02-11T04:24:28;19.37;;;10.53;;
12042;SDS011;6082;49.306;12.862;2023-02-11T04:26:54;22.33;;;11.37;;
12042;SDS011;6082;49.306;12.862;2023-02-11T04:29:20;23.57;;;10.77;;
12042;SDS011;6082;49.306;12.862;2023-02-11T04:31:46;21.83;;;10.13;;
12042;SDS011;6082;49.306;12.862;2023-02-11T04:34:12;20.90;;;10.37;;
12042;SDS011;6082;49.306;12.862;2023-02-11T04:36:38;19.77;;;11.07;;
12042;SDS011;6082;49.306;12.862;2023-02-11T04:39:04;21.53;;;9.80;;
12042;SDS011;6082;49.306;12.862;2023-02-11T04:41:30;18.67;;;10.17;;
12042;SDS011;6082;49.306;12.862;2023-02-11T04:43:57;21.70;;;9.93;;
12042;SDS011;6082;49.306;12.862;2023-02-11T04:46:23;26.87;;;11.23;;
12042;SDS011;6082;49.306;12.862;2023-02-11T04:48:49;28.73;;;11.77;;
12042;SDS011;6082;49.306;12.862;2023-02-11T04:51:15;21.03;;;10.30;;
12042;SDS011;6082;49.306;12.862;2023-02-11T04:53:41;27.07;;;11.37;;
12042;SDS011;6082;49.306;12.862;2023-02-11T04:56:07;20.07;;;11.07;;
12042;SDS011;6082;49.306;12.862;2023-02-11T04:58:33;25.53;;;10.97;;
12042;SDS011;6082;49.306;12.862;2023-02-11T05:01:09;29.90;;;11.50;;
12042;SDS011;6082;49.306;12.862;2023-02-11T05:03:36;17.80;;;10.40;;
12042;SDS011;6082;49.306;12.862;2023-02-11T05:06:02;20.80;;;10.33;;
12042;SDS011;6082;49.306;12.862;2023-02-11T05:08:29;23.30;;;11.13;;
12042;SDS011;6082;49.306;12.862;2023-02-11T05:10:55;20.30;;;10.13;;
12042;SDS011;6082;49.306;12.862;2023-02-11T05:13:21;25.37;;;11.37;;
12042;SDS011;6082;49.306;12.862;2023-02-11T05:15:47;22.20;;;9.47;;
12042;SDS011;6082;49.306;12.862;2023-02-11T05:18:13;27.67;;;11.97;;
12042;SDS011;6082;49.306;12.862;2023-02-11T05:20:40;22.00;;;10.40;;
12042;SDS011;6082;49.306;12.862;2023-02-11T05:23:06;16.53;;;9.97;;
12042;SDS011;6082;49.306;12.862;2023-02-11T05:25:33;17.03;;;10.20;;
12042;SDS011;6082;49.306;12.862;2023-02-11T05:27:59;18.47;;;9.10;;
12042;SDS011;6082;49.306;12.862;2023-02-11T05:30:25;21.53;;;10.97;;
12042;SDS011;6082;49.306;12.862;2023-02-11T05:32:52;18.90;;;9.40;;
12042;SDS011;6082;49.306;12.862;2023-02-11T05:35:18;20.17;;;10.07;;
12042;SDS011;6082;49.306;12.862;2023-02-11T05:37:44;21.33;;;9.97;;
12042;SDS011;6082;49.306;12.862;2023-02-11T05:40:10;19.07;;;10.10;;
12042;SDS011;6082;49.306;12.862;2023-02-11T05:42:36;24.77;;;11.63;;
12042;SDS011;6082;49.306;12.862;2023-02-11T05:45:02;23.97;;;11.63;;
12042;SDS011;6082;49.306;12.862;2023-02-11T05:47:28;19.57;;;10.53;;
12042;SDS011;6082;49.306;12.862;2023-02-11T05:49:54;17.70;;;9.50;;
12042;SDS011;6082;49.306;12.862;2023-02-11T05:52:21;18.73;;;8.70;;
12042;SDS011;6082;49.306;12.862;2023-02-11T05:54:47;23.73;;;9.87;;
12042;SDS011;6082;49.306;12.862;2023-02-11T05:57:13;19.50;;;9.97;;
12042;SDS011;6082;49.306;12.862;2023-02-11T05:59:39;20.10;;;9.73;;
12042;SDS011;6082;49.306;12.862;2023-02-11T06:02:06;21.53;;;12.10;;
12042;SDS011;6082;49.306;12.862;2023-02-11T06:04:33;19.37;;;10.37;;
12042;SDS011;6082;49.306;12.862;2023-02-11T06:06:59;22.87;;;8.60;;
12042;SDS011;6082;49.306;12.862;2023-02-11T06:09:25;19.23;;;10.60;;
12042;SDS011;6082;49.306;12.862;2023-02-11T06:11:51;20.63;;;10.47;;
12042;SDS011;6082;49.306;12.862;2023-02-11T06:14:18;16.03;;;9.80;;
12042;SDS011;6082;49.306;12.862;2023-02-11T06:16:44;24.07;;;10.57;;
12042;SDS011;6082;49.306;12.862;2023-02-11T06:19:10;20.03;;;10.20;;
12042;SDS011;6082;49.306;12.862;2023-02-11T06:21:37;27.37;;;11.77;;
12042;SDS011;6082;49.306;12.862;2023-02-11T06:24:04;19.03;;;9.47;;
12042;SDS011;6082;49.306;12.862;2023-02-11T06:26:31;22.60;;;10.63;;
12042;SDS011;6082;49.306;12.862;2023-02-11T06:29:00;21.77;;;9.93;;
12042;SDS011;6082;49.306;12.862;2023-02-11T06:31:26;20.83;;;9.90;;
12042;SDS011;6082;49.306;12.862;2023-02-11T06:33:53;18.17;;;8.83;;
12042;SDS011;6082;49.306;12.862;2023-02-11T06:36:19;23.27;;;10.97;;
12042;SDS011;6082;49.306;12.862;2023-02-11T06:38:46;17.63;;;9.63;;
12042;SDS011;6082;49.306;12.862;2023-02-11T06:41:14;25.60;;;11.03;;
12042;SDS011;6082;49.306;12.862;2023-02-11T06:43:40;21.63;;;10.13;;
12042;SDS011;6082;49.306;12.862;2023-02-11T06:46:07;18.87;;;10.73;;
12042;SDS011;6082;49.306;12.862;2023-02-11T06:48:34;22.87;;;11.83;;
12042;SDS011;6082;49.306;12.862;2023-02-11T06:51:00;22.97;;;11.87;;
12042;SDS011;6082;49.306;12.862;2023-02-11T06:53:28;26.07;;;14.20;;
12042;SDS011;6082;49.306;12.862;2023-02-11T06:55:54;35.63;;;15.27;;
12042;SDS011;6082;49.306;12.862;2023-02-11T06:58:20;33.10;;;15.07;;
12042;SDS011;6082;49.306;12.862;2023-02-11T07:00:46;28.97;;;15.23;;
12042;SDS011;6082;49.306;12.862;2023-02-11T07:03:12;28.47;;;14.07;;
12042;SDS011;6082;49.306;12.862;2023-02-11T07:05:41;25.53;;;12.90;;
12042;SDS011;6082;49.306;12.862;2023-02-11T07:08:07;25.83;;;12.50;;
12042;SDS011;6082;49.306;12.862;2023-02-11T07:10:33;23.43;;;11.87;;
12042;SDS011;6082;49.306;12.862;2023-02-11T07:13:00;24.63;;;11.30;;
12042;SDS011;6082;49.306;12.862;2023-02-11T07:15:26;25.37;;;12.17;;
12042;SDS011;6082;49.306;12.862;2023-02-11T07:17:52;23.17;;;11.27;;
12042;SDS011;6082;49.306;12.862;2023-02-11T07:20:18;20.93;;;11.33;;
12042;SDS011;6082;49.306;12.862;2023-02-11T07:22:44;28.10;;;11.10;;
12042;SDS011;6082;49.306;12.862;2023-02-11T07:25:10;23.90;;;12.27;;
12042;SDS011;6082;49.306;12.862;2023-02-11T07:27:36;23.53;;;11.33;;
12042;SDS011;6082;49.306;12.862;2023-02-11T07:30:02;25.40;;;11.27;;
12042;SDS011;6082;49.306;12.862;2023-02-11T07:32:29;24.60;;;12.67;;
12042;SDS011;6082;49.306;12.862;2023-02-11T07:34:55;21.70;;;10.30;;
12042;SDS011;6082;49.306;12.862;2023-02-11T07:37:21;22.27;;;11.53;;
12042;SDS011;6082;49.306;12.862;2023-02-11T07:39:47;24.63;;;12.50;;
12042;SDS011;6082;49.306;12.862;2023-02-11T07:42:13;29.33;;;12.27;;
12042;SDS011;6082;49.306;12.862;2023-02-11T07:44:39;24.40;;;11.63;;
12042;SDS011;6082;49.306;12.862;2023-02-11T07:47:05;28.07;;;11.13;;
12042;SDS011;6082;49.306;12.862;2023-02-11T07:49:31;24.07;;;11.43;;
12042;SDS011;6082;49.306;12.862;2023-02-11T07:51:57;24.70;;;11.70;;
12042;SDS011;6082;49.306;12.862;2023-02-11T07:54:23;31.60;;;13.30;;
12042;SDS011;6082;49.306;12.862;2023-02-11T07:56:50;27.13;;;12.93;;
12042;SDS011;6082;49.306;12.862;2023-02-11T07:59:16;24.37;;;11.13;;
12042;SDS011;6082;49.306;12.862;2023-02-11T08:01:42;23.73;;;11.83;;
12042;SDS011;6082;49.306;12.862;2023-02-11T08:04:08;19.47;;;11.33;;
12042;SDS011;6082;49.306;12.862;2023-02-11T08:06:34;20.17;;;11.73;;
12042;SDS011;6082;49.306;12.862;2023-02-11T08:09:04;22.93;;;10.07;;
12042;SDS011;6082;49.306;12.862;2023-02-11T08:11:30;27.03;;;11.47;;
12042;SDS011;6082;49.306;12.862;2023-02-11T08:13:57;24.23;;;11.07;;
12042;SDS011;6082;49.306;12.862;2023-02-11T08:18:49;30.37;;;12.03;;
12042;SDS011;6082;49.306;12.862;2023-02-11T08:21:15;22.97;;;10.17;;
12042;SDS011;6082;49.306;12.862;2023-02-11T08:23:42;22.00;;;11.80;;
12042;SDS011;6082;49.306;12.862;2023-02-11T08:26:09;23.20;;;11.90;;
12042;SDS011;6082;49.306;12.862;2023-02-11T08:28:37;19.80;;;11.23;;
12042;SDS011;6082;49.306;12.862;2023-02-11T08:31:10;24.93;;;11.47;;
12042;SDS011;6082;49.306;12.862;2023-02-11T08:33:37;25.33;;;11.27;;
12042;SDS011;6082;49.306;12.862;2023-02-11T08:36:08;21.80;;;11.10;;
12042;SDS011;6082;49.306;12.862;2023-02-11T08:38:34;20.63;;;10.40;;
12042;SDS011;6082;49.306;12.862;2023-02-11T08:41:01;27.00;;;12.30;;
12042;SDS011;6082;49.306;12.862;2023-02-11T08:43:27;26.37;;;12.17;;
12042;SDS011;6082;49.306;12.862;2023-02-11T08:45:53;22.20;;;12.10;;
12042;SDS011;6082;49.306;12.862;2023-02-11T08:48:19;26.37;;;12.43;;
12042;SDS011;6082;49.306;12.862;2023-02-11T08:50:45;27.80;;;11.57;;
12042;SDS011;6082;49.306;12.862;2023-02-11T08:53:11;23.00;;;10.83;;
12042;SDS011;6082;49.306;12.862;2023-02-11T08:55:37;24.30;;;10.60;;
12042;SDS011;6082;49.306;12.862;2023-02-11T08:58:03;27.33;;;12.10;;
12042;SDS011;6082;49.306;12.862;2023-02-11T09:00:29;26.00;;;12.00;;
12042;SDS011;6082;49.306;12.862;2023-02-11T09:02:55;23.37;;;11.37;;
12042;SDS011;6082;49.306;12.862;2023-02-11T09:05:21;30.70;;;11.37;;
12042;SDS011;6082;49.306;12.862;2023-02-11T09:07:47;24.20;;;11.77;;
12042;SDS011;6082;49.306;12.862;2023-02-11T09:10:14;20.20;;;10.23;;
12042;SDS011;6082;49.306;12.862;2023-02-11T09:12:40;25.80;;;12.30;;
12042;SDS011;6082;49.306;12.862;2023-02-11T09:15:06;25.67;;;12.23;;
12042;SDS011;6082;49.306;12.862;2023-02-11T09:17:32;30.80;;;14.60;;
12042;SDS011;6082;49.306;12.862;2023-02-11T09:19:58;27.07;;;12.87;;
12042;SDS011;6082;49.306;12.862;2023-02-11T09:22:24;27.10;;;12.77;;
12042;SDS011;6082;49.306;12.862;2023-02-11T09:24:50;24.30;;;12.47;;
12042;SDS011;6082;49.306;12.862;2023-02-11T09:27:16;24.23;;;12.50;;
12042;SDS011;6082;49.306;12.862;2023-02-11T09:29:42;22.33;;;11.20;;
12042;SDS011;6082;49.306;12.862;2023-02-11T09:32:08;22.77;;;11.03;;
12042;SDS011;6082;49.306;12.862;2023-02-11T09:34:34;25.47;;;12.40;;
12042;SDS011;6082;49.306;12.862;2023-02-11T09:37:01;22.67;;;11.57;;
12042;SDS011;6082;49.306;12.862;2023-02-11T09:39:27;21.00;;;10.27;;
12042;SDS011;6082;49.306;12.862;2023-02-11T09:44:23;23.70;;;12.17;;
12042;SDS011;6082;49.306;12.862;2023-02-11T09:46:57;21.13;;;11.10;;
12042;SDS011;6082;49.306;12.862;2023-02-11T09:49:35;21.13;;;10.63;;
12042;SDS011;6082;49.306;12.862;2023-02-11T09:52:05;20.63;;;10.30;;
12042;SDS011;6082;49.306;12.862;2023-02-11T09:55:16;19.87;;;10.10;;
12042;SDS011;6082;49.306;12.862;2023-02-11T09:57:23;20.43;;;11.47;;
12042;SDS011;6082;49.306;12.862;2023-02-11T09:59:51;23.53;;;10.83;;
12042;SDS011;6082;49.306;12.862;2023-02-11T10:04:50;26.13;;;11.10;;
12042;SDS011;6082;49.306;12.862;2023-02-11T10:22:49;22.07;;;11.37;;
12042;SDS011;6082;49.306;12.862;2023-02-11T10:25:20;24.60;;;12.20;;
12042;SDS011;6082;49.306;12.862;2023-02-11T10:27:47;20.30;;;11.00;;
12042;SDS011;6082;49.306;12.862;2023-02-11T10:35:24;22.63;;;10.87;;
12042;SDS011;6082;49.306;12.862;2023-02-11T10:37:51;20.70;;;10.97;;
12042;SDS011;6082;49.306;12.862;2023-02-11T10:40:19;28.53;;;13.53;;
12042;SDS011;6082;49.306;12.862;2023-02-11T10:42:47;24.73;;;11.43;;
12042;SDS011;6082;49.306;12.862;2023-02-11T10:45:20;23.00;;;11.57;;
12042;SDS011;6082;49.306;12.862;2023-02-11T10:47:47;25.77;;;10.67;;
12042;SDS011;6082;49.306;12.862;2023-02-11T10:50:32;19.80;;;10.17;;
12042;SDS011;6082;49.306;12.862;2023-02-11T10:55:37;24.90;;;10.67;;
12042;SDS011;6082;49.306;12.862;2023-02-11T10:58:03;23.07;;;11.10;;
12042;SDS011;6082;49.306;12.862;2023-02-11T11:00:39;23.90;;;11.70;;
12042;SDS011;6082;49.306;12.862;2023-02-11T11:03:17;23.07;;;10.47;;
12042;SDS011;6082;49.306;12.862;2023-02-11T11:05:48;23.27;;;10.50;;
12042;SDS011;6082;49.306;12.862;2023-02-11T11:08:15;26.73;;;12.13;;
12042;SDS011;6082;49.306;12.862;2023-02-11T11:10:43;22.00;;;12.60;;
12042;SDS011;6082;49.306;12.862;2023-02-11T11:13:26;21.13;;;10.13;;
12042;SDS011;6082;49.306;12.862;2023-02-11T11:18:38;20.50;;;10.63;;
12042;SDS011;6082;49.306;12.862;2023-02-11T11:21:05;25.23;;;11.40;;
12042;SDS011;6082;49.306;12.862;2023-02-11T11:23:33;24.73;;;11.97;;
12042;SDS011;6082;49.306;12.862;2023-02-11T11:26:07;20.37;;;10.40;;
12042;SDS011;6082;49.306;12.862;2023-02-11T11:31:14;26.90;;;11.37;;
12042;SDS011;6082;49.306;12.862;2023-02-11T11:33:43;20.70;;;10.73;;
12042;SDS011;6082;49.306;12.862;2023-02-11T11:36:11;23.97;;;12.03;;
12042;SDS011;6082;49.306;12.862;2023-02-11T11:38:49;24.13;;;13.30;;
12042;SDS011;6082;49.306;12.862;2023-02-11T11:46:28;24.93;;;12.07;;
12042;SDS011;6082;49.306;12.862;2023-02-11T11:48:59;24.67;;;13.40;;
12042;SDS011;6082;49.306;12.862;2023-02-11T11:51:28;21.23;;;11.17;;
12042;SDS011;6082;49.306;12.862;2023-02-11T11:56:27;28.27;;;11.23;;
12042;SDS011;6082;49.306;12.862;2023-02-11T11:58:55;21.20;;;10.63;;
12042;SDS011;6082;49.306;12.862;2023-02-11T12:12:02;17.63;;;9.97;;
12042;SDS011;6082;49.306;12.862;2023-02-11T12:33:08;26.17;;;13.60;;
12042;SDS011;6082;49.306;12.862;2023-02-11T12:41:30;21.03;;;11.53;;
12042;SDS011;6082;49.306;12.862;2023-02-11T12:44:05;23.90;;;10.40;;
12042;SDS011;6082;49.306;12.862;2023-02-11T12:46:33;18.00;;;11.83;;
12042;SDS011;6082;49.306;12.862;2023-02-11T12:59:28;22.57;;;11.33;;
12042;SDS011;6082;49.306;12.862;2023-02-11T13:01:57;25.77;;;11.83;;
12042;SDS011;6082;49.306;12.862;2023-02-11T13:04:25;21.83;;;12.20;;
12042;SDS011;6082;49.306;12.862;2023-02-11T13:06:55;23.70;;;11.47;;
12042;SDS011;6082;49.306;12.862;2023-02-11T13:09:25;24.17;;;12.50;;
12042;SDS011;6082;49.306;12.862;2023-02-11T13:11:53;23.77;;;12.70;;
12042;SDS011;6082;49.306;12.862;2023-02-11T13:14:30;22.47;;;11.00;;
12042;SDS011;6082;49.306;12.862;2023-02-11T13:16:59;22.37;;;11.43;;
12042;SDS011;6082;49.306;12.862;2023-02-11T13:19:33;27.27;;;13.50;;
12042;SDS011;6082;49.306;12.862;2023-02-11T13:22:16;19.47;;;10.70;;
12042;SDS011;6082;49.306;12.862;2023-02-11T13:32:16;23.97;;;10.60;;
12042;SDS011;6082;49.306;12.862;2023-02-11T13:37:11;24.13;;;11.43;;
12042;SDS011;6082;49.306;12.862;2023-02-11T13:39:54;24.87;;;11.53;;
12042;SDS011;6082;49.306;12.862;2023-02-11T13:42:20;23.87;;;11.20;;
12042;SDS011;6082;49.306;12.862;2023-02-11T13:44:47;23.00;;;11.07;;
12042;SDS011;6082;49.306;12.862;2023-02-11T13:47:23;20.87;;;11.13;;
12042;SDS011;6082;49.306;12.862;2023-02-11T13:49:51;28.50;;;11.70;;
12042;SDS011;6082;49.306;12.862;2023-02-11T13:52:25;23.00;;;11.07;;
12042;SDS011;6082;49.306;12.862;2023-02-11T13:54:52;21.07;;;11.27;;
12042;SDS011;6082;49.306;12.862;2023-02-11T13:59:52;22.73;;;11.07;;
12042;SDS011;6082;49.306;12.862;2023-02-11T14:02:20;24.90;;;12.13;;
12042;SDS011;6082;49.306;12.862;2023-02-11T14:11:03;20.57;;;11.90;;
12042;SDS011;6082;49.306;12.862;2023-02-11T14:16:12;25.37;;;11.13;;
12042;SDS011;6082;49.306;12.862;2023-02-11T14:23:46;26.83;;;13.33;;
12042;SDS011;6082;49.306;12.862;2023-02-11T14:28:49;22.37;;;12.70;;
12042;SDS011;6082;49.306;12.862;2023-02-11T14:31:17;26.47;;;13.47;;
12042;SDS011;6082;49.306;12.862;2023-02-11T14:33:57;27.57;;;13.03;;
12042;SDS011;6082;49.306;12.862;2023-02-11T14:41:52;23.83;;;11.97;;
12042;SDS011;6082;49.306;12.862;2023-02-11T14:44:19;24.10;;;12.57;;
12042;SDS011;6082;49.306;12.862;2023-02-11T14:46:46;26.20;;;12.60;;
12042;SDS011;6082;49.306;12.862;2023-02-11T14:49:21;31.07;;;13.90;;
12042;SDS011;6082;49.306;12.862;2023-02-11T14:51:49;26.73;;;13.50;;
12042;SDS011;6082;49.306;12.862;2023-02-11T14:54:22;25.17;;;12.83;;
12042;SDS011;6082;49.306;12.862;2023-02-11T14:59:35;36.93;;;15.97;;
12042;SDS011;6082;49.306;12.862;2023-02-11T15:02:01;30.90;;;15.77;;
12042;SDS011;6082;49.306;12.862;2023-02-11T15:04:28;24.87;;;13.50;;
12042;SDS011;6082;49.306;12.862;2023-02-11T15:06:55;34.30;;;14.60;;
12042;SDS011;6082;49.306;12.862;2023-02-11T15:11:57;28.90;;;13.03;;
12042;SDS011;6082;49.306;12.862;2023-02-11T15:14:25;29.43;;;15.07;;
12042;SDS011;6082;49.306;12.862;2023-02-11T15:16:52;27.17;;;14.73;;
12042;SDS011;6082;49.306;12.862;2023-02-11T15:19:23;29.90;;;14.10;;
12042;SDS011;6082;49.306;12.862;2023-02-11T15:21:50;29.83;;;13.57;;
12042;SDS011;6082;49.306;12.862;2023-02-11T15:24:21;26.10;;;14.63;;
12042;SDS011;6082;49.306;12.862;2023-02-11T15:29:36;27.10;;;14.87;;
12042;SDS011;6082;49.306;12.862;2023-02-11T15:32:22;22.77;;;13.20;;
12042;SDS011;6082;49.306;12.862;2023-02-11T15:34:50;27.27;;;13.63;;
12042;SDS011;6082;49.306;12.862;2023-02-11T15:37:23;19.57;;;11.10;;
12042;SDS011;6082;49.306;12.862;2023-02-11T15:39:50;33.10;;;17.63;;
12042;SDS011;6082;49.306;12.862;2023-02-11T15:42:24;24.17;;;13.43;;
12042;SDS011;6082;49.306;12.862;2023-02-11T15:45:07;24.60;;;13.40;;
12042;SDS011;6082;49.306;12.862;2023-02-11T15:47:34;26.73;;;13.83;;
12042;SDS011;6082;49.306;12.862;2023-02-11T15:50:00;28.47;;;14.77;;
12042;SDS011;6082;49.306;12.862;2023-02-11T15:52:26;24.67;;;13.67;;
12042;SDS011;6082;49.306;12.862;2023-02-11T15:54:53;25.93;;;12.93;;
12042;SDS011;6082;49.306;12.862;2023-02-11T15:57:21;24.43;;;13.73;;
12042;SDS011;6082;49.306;12.862;2023-02-11T15:59:48;27.93;;;12.93;;
12042;SDS011;6082;49.306;12.862;2023-02-11T16:02:16;19.17;;;10.60;;
12042;SDS011;6082;49.306;12.862;2023-02-11T16:04:48;25.10;;;12.80;;
12042;SDS011;6082;49.306;12.862;2023-02-11T16:09:59;26.17;;;14.07;;
12042;SDS011;6082;49.306;12.862;2023-02-11T16:12:25;30.23;;;16.07;;
12042;SDS011;6082;49.306;12.862;2023-02-11T16:14:51;28.40;;;13.77;;
12042;SDS011;6082;49.306;12.862;2023-02-11T16:19:44;27.03;;;12.97;;
12042;SDS011;6082;49.306;12.862;2023-02-11T16:22:14;24.77;;;12.30;;
12042;SDS011;6082;49.306;12.862;2023-02-11T16:24:41;27.80;;;14.27;;
12042;SDS011;6082;49.306;12.862;2023-02-11T16:30:03;28.87;;;14.73;;
12042;SDS011;6082;49.306;12.862;2023-02-11T16:32:32;25.73;;;14.83;;
12042;SDS011;6082;49.306;12.862;2023-02-11T16:34:59;28.33;;;13.97;;
12042;SDS011;6082;49.306;12.862;2023-02-11T16:37:25;28.53;;;13.63;;
12042;SDS011;6082;49.306;12.862;2023-02-11T16:39:52;27.83;;;14.77;;
12042;SDS011;6082;49.306;12.862;2023-02-11T16:42:18;26.43;;;13.27;;
12042;SDS011;6082;49.306;12.862;2023-02-11T16:44:44;23.13;;;12.77;;
12042;SDS011;6082;49.306;12.862;2023-02-11T16:47:22;26.43;;;14.03;;
12042;SDS011;6082;49.306;12.862;2023-02-11T16:49:49;32.13;;;14.60;;
12042;SDS011;6082;49.306;12.862;2023-02-11T16:52:15;24.73;;;13.13;;
12042;SDS011;6082;49.306;12.862;2023-02-11T16:54:42;27.07;;;14.53;;
12042;SDS011;6082;49.306;12.862;2023-02-11T16:57:11;30.33;;;14.77;;
12042;SDS011;6082;49.306;12.862;2023-02-11T16:59:38;25.17;;;12.13;;
12042;SDS011;6082;49.306;12.862;2023-02-11T17:02:07;24.97;;;14.67;;
12042;SDS011;6082;49.306;12.862;2023-02-11T17:04:35;28.20;;;13.97;;
12042;SDS011;6082;49.306;12.862;2023-02-11T17:07:01;27.47;;;13.43;;
12042;SDS011;6082;49.306;12.862;2023-02-11T17:09:27;23.50;;;12.53;;
12042;SDS011;6082;49.306;12.862;2023-02-11T17:11:53;25.63;;;13.60;;
12042;SDS011;6082;49.306;12.862;2023-02-11T17:14:19;25.50;;;12.27;;
12042;SDS011;6082;49.306;12.862;2023-02-11T17:16:46;24.43;;;12.70;;
12042;SDS011;6082;49.306;12.862;2023-02-11T17:19:13;26.17;;;12.37;;
12042;SDS011;6082;49.306;12.862;2023-02-11T17:21:43;22.93;;;12.10;;
12042;SDS011;6082;49.306;12.862;2023-02-11T17:24:10;31.67;;;16.37;;
12042;SDS011;6082;49.306;12.862;2023-02-11T17:26:38;29.93;;;16.33;;